METAR Data
IDs: Format: Raw Decoded Include TAF

Data at: 1918 UTC 26 Sep 2021

METAR for:KCQW (Cheraw Muni, SC, US)
Text:KCQW 261915Z AUTO 28007KT 10SM FEW060 26/11 A3007 RMK AO2
Temperature: 26.0°C ( 79°F)
Dewpoint: 11.0°C ( 52°F) [RH = 39%]
Pressure (altimeter):30.07 inches Hg (1018.4 mb)
Winds:from the W (280 degrees) at 8 MPH (7 knots; 3.6 m/s)
Visibility:10 or more sm (16+ km)
Ceiling:at least 12,000 feet AGL
Clouds: few clouds at 6000 feet AGL
QC Flag:automated observation with no human augmentation

TAF for:KCQW (Cheraw Muni, SC, US)
Text:No data found